Time;durP1;ratioP1;P1;durP2;ratioP2;P2;SDS_P1;SDS_P2;PMS_P1;PMS_P2;Temp;Humidity;BMP_temperature;BMP_pressure;BME280_temperature;BME280_humidity;BME280_pressure;Samples;Min_cycle;Max_cycle;Signal;HPM_P1;HPM_P2
2021/04/25 00:02:08;;;;;;;;;;;3.90;96.00;;;;;;5095386;28;19919;-50
2021/04/25 00:04:34;;;;;;;;;;;3.80;95.50;;;;;;5095401;28;19908;-51
2021/04/25 00:07:00;;;;;;;;;;;3.80;95.30;;;;;;5095595;28;19919;-53
2021/04/25 00:09:26;;;;;;;;;;;3.90;95.00;;;;;;5095907;28;20364;-50
2021/04/25 00:11:52;;;;;;;;;;;3.80;94.90;;;;;;5095495;28;19912;-50
2021/04/25 00:14:18;;;;;;;;;;;3.70;95.20;;;;;;5095213;28;19912;-50
2021/04/25 00:16:44;;;;;;;;;;;3.70;94.80;;;;;;5093394;28;19915;-49
2021/04/25 00:19:10;;;;;;;;;;;3.60;94.90;;;;;;5093161;28;20334;-50
2021/04/25 00:21:36;;;;;;;;;;;3.60;94.80;;;;;;5092641;28;19927;-50
2021/04/25 00:24:02;;;;;;;;;;;3.60;94.80;;;;;;5093355;28;19912;-50
2021/04/25 00:26:28;;;;;;;;;;;3.60;94.30;;;;;;5093117;28;19912;-49
2021/04/25 00:28:54;;;;;;;;;;;3.60;94.20;;;;;;5092685;28;20001;-50
2021/04/25 00:31:20;;;;;;;;;;;3.50;93.60;;;;;;5091358;28;19944;-50
2021/04/25 00:33:46;;;;;;;;;;;3.50;93.50;;;;;;5092959;28;19927;-50
2021/04/25 00:36:12;;;;;;;;;;;3.50;93.40;;;;;;5091350;28;19911;-49
2021/04/25 00:38:37;;;;;;;;;;;3.40;93.40;;;;;;5092795;28;19915;-50
2021/04/25 00:41:03;;;;;;;;;;;3.40;93.60;;;;;;5090881;28;19919;-51
2021/04/25 00:43:29;;;;;;;;;;;3.30;93.50;;;;;;5096241;28;19908;-50
2021/04/25 00:45:55;;;;;;;;;;;3.30;93.20;;;;;;5095416;28;19907;-51
2021/04/25 00:48:22;;;;;;;;;;;3.20;93.30;;;;;;5094977;28;20068;-50
2021/04/25 00:50:48;;;;;;;;;;;3.20;93.40;;;;;;5095088;27;19916;-50
2021/04/25 00:53:14;;;;;;;;;;;3.20;93.50;;;;;;5099606;28;19956;-51
2021/04/25 00:55:40;;;;;;;;;;;3.20;93.00;;;;;;5096464;28;19912;-50
2021/04/25 00:58:06;;;;;;;;;;;3.10;93.30;;;;;;5097202;28;19954;-51
2021/04/25 01:00:32;;;;;;;;;;;3.00;93.40;;;;;;5094645;28;20033;-49
2021/04/25 01:02:58;;;;;;;;;;;3.00;93.40;;;;;;5095759;28;19994;-53
2021/04/25 01:05:24;;;;;;;;;;;3.00;93.30;;;;;;5092615;28;20315;-49
2021/04/25 01:07:50;;;;;;;;;;;3.00;93.10;;;;;;5100015;28;20367;-49
2021/04/25 01:10:16;;;;;;;;;;;2.90;92.80;;;;;;5091713;28;19919;-50
2021/04/25 01:12:42;;;;;;;;;;;2.90;93.00;;;;;;5091103;28;19962;-51
2021/04/25 01:15:09;;;;;;;;;;;2.90;93.00;;;;;;5092765;28;19912;-51
2021/04/25 01:17:39;;;;;;;;;;;2.80;93.30;;;;;;5091883;28;19931;-49
2021/04/25 01:20:05;;;;;;;;;;;2.70;93.30;;;;;;5091121;28;19962;-52
2021/04/25 01:22:31;;;;;;;;;;;2.70;93.20;;;;;;5092963;28;19912;-51
2021/04/25 01:24:57;;;;;;;;;;;2.60;93.30;;;;;;5095171;28;19908;-52
2021/04/25 01:27:23;;;;;;;;;;;2.60;93.10;;;;;;5100364;28;20049;-49
2021/04/25 01:29:49;;;;;;;;;;;2.60;92.80;;;;;;5095194;28;20364;-51
2021/04/25 01:32:15;;;;;;;;;;;2.70;92.80;;;;;;5091601;28;20372;-50
2021/04/25 01:34:41;;;;;;;;;;;2.60;92.60;;;;;;5094442;28;20288;-52
2021/04/25 01:37:07;;;;;;;;;;;2.70;92.50;;;;;;5099135;28;19955;-51
2021/04/25 01:39:33;;;;;;;;;;;2.70;92.00;;;;;;5095385;28;19985;-50
2021/04/25 01:41:59;;;;;;;;;;;2.70;92.00;;;;;;5093571;28;19978;-50
2021/04/25 01:44:25;;;;;;;;;;;2.60;92.10;;;;;;5101480;28;19951;-49
2021/04/25 01:46:51;;;;;;;;;;;2.60;92.30;;;;;;5101146;28;19943;-52
2021/04/25 01:49:17;;;;;;;;;;;2.50;92.40;;;;;;5102757;28;20387;-50
2021/04/25 01:51:43;;;;;;;;;;;2.50;92.40;;;;;;5097899;28;19915;-51
2021/04/25 01:54:09;;;;;;;;;;;2.40;92.40;;;;;;5098190;28;20299;-51
2021/04/25 01:56:35;;;;;;;;;;;2.40;92.70;;;;;;5096034;28;19908;-51
2021/04/25 01:59:01;;;;;;;;;;;2.30;92.50;;;;;;5094414;28;20003;-51
2021/04/25 02:01:27;;;;;;;;;;;2.30;92.70;;;;;;5092878;28;19912;-51
2021/04/25 02:03:53;;;;;;;;;;;2.30;92.80;;;;;;5101119;28;19912;-51
2021/04/25 02:06:19;;;;;;;;;;;2.20;93.00;;;;;;5100097;28;19912;-51
2021/04/25 02:08:45;;;;;;;;;;;2.10;93.30;;;;;;5097103;28;19920;-51
2021/04/25 02:11:11;;;;;;;;;;;2.20;93.20;;;;;;5099548;28;19953;-51
2021/04/25 02:13:37;;;;;;;;;;;2.10;93.20;;;;;;5095868;28;19912;-51
2021/04/25 02:16:03;;;;;;;;;;;2.10;93.40;;;;;;5096290;28;19934;-50
2021/04/25 02:18:29;;;;;;;;;;;2.00;93.60;;;;;;5100860;27;19919;-50
2021/04/25 02:20:55;;;;;;;;;;;1.90;94.00;;;;;;5097687;28;20026;-50
2021/04/25 02:23:21;;;;;;;;;;;2.00;93.70;;;;;;5100728;28;19908;-49
2021/04/25 02:25:47;;;;;;;;;;;1.90;93.80;;;;;;5103097;28;19915;-52
2021/04/25 02:28:13;;;;;;;;;;;1.80;94.40;;;;;;5105586;28;19942;-53
2021/04/25 02:30:38;;;;;;;;;;;1.70;94.30;;;;;;5096149;28;19924;-49
2021/04/25 02:33:05;;;;;;;;;;;1.60;94.20;;;;;;5102371;28;20006;-50
2021/04/25 02:35:31;;;;;;;;;;;1.50;94.70;;;;;;5101677;28;19908;-52
2021/04/25 02:37:57;;;;;;;;;;;1.40;95.30;;;;;;5100343;28;19914;-51
2021/04/25 02:40:24;;;;;;;;;;;1.30;95.50;;;;;;5101687;28;19912;-53
2021/04/25 02:42:50;;;;;;;;;;;1.30;95.70;;;;;;5105602;28;20379;-53
2021/04/25 02:45:16;;;;;;;;;;;1.30;95.70;;;;;;5095584;28;19919;-51
2021/04/25 02:47:46;;;;;;;;;;;1.30;96.10;;;;;;5094398;28;19919;-50
2021/04/25 02:50:12;;;;;;;;;;;1.30;96.10;;;;;;5099393;28;19919;-51
2021/04/25 02:52:38;;;;;;;;;;;1.30;96.10;;;;;;5096981;28;19912;-50
2021/04/25 02:55:04;;;;;;;;;;;1.30;96.20;;;;;;5102405;28;19912;-51
2021/04/25 02:57:30;;;;;;;;;;;1.30;96.20;;;;;;5105843;28;19919;-51
2021/04/25 02:59:56;;;;;;;;;;;1.20;96.30;;;;;;5098054;28;19911;-53
2021/04/25 03:02:22;;;;;;;;;;;1.10;96.30;;;;;;5096917;28;19912;-50
2021/04/25 03:04:48;;;;;;;;;;;1.20;96.40;;;;;;5093900;28;19916;-52
2021/04/25 03:07:14;;;;;;;;;;;1.20;96.40;;;;;;5095673;28;19912;-51
2021/04/25 03:09:39;;;;;;;;;;;1.20;96.40;;;;;;5100969;28;19934;-50
2021/04/25 03:12:06;;;;;;;;;;;1.20;96.40;;;;;;5094739;28;19973;-50
2021/04/25 03:14:32;;;;;;;;;;;1.10;96.70;;;;;;5104754;28;19912;-51
2021/04/25 03:16:57;;;;;;;;;;;1.00;96.90;;;;;;5096138;28;20296;-49
2021/04/25 03:19:24;;;;;;;;;;;1.00;96.90;;;;;;5095705;27;19916;-51
2021/04/25 03:21:50;;;;;;;;;;;1.00;97.40;;;;;;5096290;28;19923;-50
2021/04/25 03:24:18;;;;;;;;;;;0.80;97.10;;;;;;5095054;28;19916;-49
2021/04/25 03:26:44;;;;;;;;;;;0.80;97.90;;;;;;5095427;28;20277;-49
2021/04/25 03:29:10;;;;;;;;;;;0.80;97.80;;;;;;5096532;28;19922;-52
2021/04/25 03:31:36;;;;;;;;;;;0.80;97.70;;;;;;5102458;28;19957;-50
2021/04/25 03:34:02;;;;;;;;;;;0.80;97.90;;;;;;5094546;28;19970;-52
2021/04/25 03:36:28;;;;;;;;;;;0.80;97.90;;;;;;5100575;28;19908;-50
2021/04/25 03:38:54;;;;;;;;;;;0.90;97.70;;;;;;5094540;28;19919;-53
2021/04/25 03:41:20;;;;;;;;;;;0.90;97.60;;;;;;5097438;28;19961;-50
2021/04/25 03:43:46;;;;;;;;;;;0.90;97.60;;;;;;5093998;28;19908;-52
2021/04/25 03:46:12;;;;;;;;;;;0.90;97.70;;;;;;5096406;28;20648;-52
2021/04/25 03:48:38;;;;;;;;;;;0.90;98.00;;;;;;5094887;28;19915;-50
2021/04/25 03:51:04;;;;;;;;;;;0.90;97.80;;;;;;5103142;28;20003;-50
2021/04/25 03:53:30;;;;;;;;;;;0.90;98.10;;;;;;5097831;28;19908;-53
2021/04/25 03:55:56;;;;;;;;;;;1.00;98.00;;;;;;5096826;28;19981;-52
2021/04/25 03:58:22;;;;;;;;;;;1.00;98.00;;;;;;5096157;28;19916;-53
2021/04/25 04:00:48;;;;;;;;;;;1.00;97.80;;;;;;5097621;28;19920;-53
2021/04/25 04:03:14;;;;;;;;;;;1.10;97.60;;;;;;5102535;28;20298;-52
2021/04/25 04:05:39;;;;;;;;;;;1.10;97.60;;;;;;5102434;27;19916;-53
2021/04/25 04:08:05;;;;;;;;;;;1.20;97.60;;;;;;5102573;28;19919;-53
2021/04/25 04:10:31;;;;;;;;;;;1.20;97.50;;;;;;5101835;28;19916;-53
2021/04/25 04:12:57;;;;;;;;;;;1.20;97.80;;;;;;5104906;28;19924;-53
2021/04/25 04:15:23;;;;;;;;;;;1.20;97.60;;;;;;5099372;28;19918;-53
2021/04/25 04:17:49;;;;;;;;;;;1.30;97.70;;;;;;5099919;28;19919;-52
2021/04/25 04:20:15;;;;;;;;;;;1.30;97.30;;;;;;5102703;28;19958;-52
2021/04/25 04:22:41;;;;;;;;;;;1.30;97.60;;;;;;5105986;28;20331;-53
2021/04/25 04:25:07;;;;;;;;;;;1.40;97.50;;;;;;5102022;28;19914;-53
2021/04/25 04:27:33;;;;;;;;;;;1.40;97.50;;;;;;5100907;28;20391;-53
2021/04/25 04:29:59;;;;;;;;;;;1.50;97.60;;;;;;5100867;28;19947;-53
2021/04/25 04:32:25;;;;;;;;;;;1.50;97.30;;;;;;5098031;28;19912;-54
2021/04/25 04:34:51;;;;;;;;;;;1.60;97.40;;;;;;5102731;28;20334;-53
2021/04/25 04:37:17;;;;;;;;;;;1.70;97.10;;;;;;5102420;28;20364;-53
2021/04/25 04:39:43;;;;;;;;;;;1.80;96.90;;;;;;5100019;28;20371;-50
2021/04/25 04:42:09;;;;;;;;;;;1.80;96.60;;;;;;5100410;28;19915;-53
2021/04/25 04:44:35;;;;;;;;;;;2.00;96.40;;;;;;5100417;28;20384;-53
2021/04/25 04:47:01;;;;;;;;;;;2.10;96.20;;;;;;5099353;28;19911;-54
2021/04/25 04:49:27;;;;;;;;;;;2.10;96.00;;;;;;5096126;28;19923;-52
2021/04/25 04:51:52;;;;;;;;;;;2.20;95.80;;;;;;5098887;28;19912;-52
2021/04/25 04:54:18;;;;;;;;;;;2.20;95.90;;;;;;5101551;28;20288;-53
2021/04/25 04:56:44;;;;;;;;;;;2.20;95.60;;;;;;5098603;28;20501;-50
2021/04/25 04:59:10;;;;;;;;;;;2.30;96.00;;;;;;5095000;27;19943;-47
2021/04/25 05:01:36;;;;;;;;;;;2.40;96.00;;;;;;5098347;28;20343;-49
2021/04/25 05:04:02;;;;;;;;;;;2.40;95.60;;;;;;5093894;28;19919;-48
2021/04/25 05:06:28;;;;;;;;;;;2.50;95.60;;;;;;5092180;28;19912;-49
2021/04/25 05:08:54;;;;;;;;;;;2.50;95.00;;;;;;5095914;28;19924;-49
2021/04/25 05:11:20;;;;;;;;;;;2.60;95.30;;;;;;5096485;28;19923;-48
2021/04/25 05:13:46;;;;;;;;;;;2.70;95.50;;;;;;5101812;28;19904;-52
2021/04/25 05:16:12;;;;;;;;;;;2.80;95.50;;;;;;5100414;28;19908;-49
2021/04/25 05:18:38;;;;;;;;;;;2.80;95.50;;;;;;5095655;28;19923;-49
2021/04/25 05:21:05;;;;;;;;;;;2.80;94.60;;;;;;5099431;28;20353;-50
2021/04/25 05:23:31;;;;;;;;;;;2.90;94.60;;;;;;5095208;28;19912;-49
2021/04/25 05:25:56;;;;;;;;;;;2.90;94.50;;;;;;5093470;28;20358;-49
2021/04/25 05:28:22;;;;;;;;;;;3.00;94.30;;;;;;5097821;28;19912;-49
2021/04/25 05:30:48;;;;;;;;;;;3.00;94.40;;;;;;5096282;28;19927;-52
2021/04/25 05:33:14;;;;;;;;;;;3.10;94.40;;;;;;5097781;28;19922;-50
2021/04/25 05:35:40;;;;;;;;;;;3.10;94.30;;;;;;5097258;28;19918;-49
2021/04/25 05:38:06;;;;;;;;;;;3.10;94.10;;;;;;5101144;28;19908;-50
2021/04/25 05:40:32;;;;;;;;;;;3.10;94.20;;;;;;5098569;28;19912;-49
2021/04/25 05:42:58;;;;;;;;;;;3.20;94.00;;;;;;5097936;28;19904;-49
2021/04/25 05:45:24;;;;;;;;;;;3.20;93.80;;;;;;5103539;28;19998;-48
2021/04/25 05:47:53;;;;;;;;;;;3.30;94.20;;;;;;5106968;28;20377;-50
2021/04/25 05:50:20;;;;;;;;;;;3.30;93.60;;;;;;5106821;28;20411;-49
2021/04/25 05:52:46;;;;;;;;;;;3.40;93.70;;;;;;5103095;28;19908;-48
2021/04/25 05:55:12;;;;;;;;;;;3.50;93.90;;;;;;5100600;28;20321;-51
2021/04/25 05:57:38;;;;;;;;;;;3.50;93.00;;;;;;5105735;28;19915;-50
2021/04/25 06:00:05;;;;;;;;;;;3.50;93.30;;;;;;5106464;28;19910;-50
2021/04/25 06:02:31;;;;;;;;;;;3.50;93.10;;;;;;5098623;28;19912;-51
2021/04/25 06:04:57;;;;;;;;;;;3.60;93.30;;;;;;5101806;28;20291;-50
2021/04/25 06:07:22;;;;;;;;;;;3.70;93.10;;;;;;5099485;28;19916;-50
2021/04/25 06:09:48;;;;;;;;;;;3.80;93.20;;;;;;5099966;28;19920;-51
2021/04/25 06:12:14;;;;;;;;;;;3.90;92.90;;;;;;5097469;28;19911;-50
2021/04/25 06:14:40;;;;;;;;;;;3.90;92.30;;;;;;5096331;28;20289;-50
2021/04/25 06:17:06;;;;;;;;;;;3.90;92.00;;;;;;5094785;28;19919;-50
2021/04/25 06:19:32;;;;;;;;;;;4.00;92.20;;;;;;5095932;28;20003;-49
2021/04/25 06:21:58;;;;;;;;;;;4.10;92.20;;;;;;5094137;28;19908;-51
2021/04/25 06:24:24;;;;;;;;;;;4.20;91.10;;;;;;5100565;28;20414;-47
2021/04/25 06:26:50;;;;;;;;;;;4.20;90.80;;;;;;5095386;28;20019;-46
2021/04/25 06:29:16;;;;;;;;;;;4.20;90.60;;;;;;5092147;28;19928;-45
2021/04/25 06:31:42;;;;;;;;;;;4.20;90.10;;;;;;5100336;28;20342;-53
2021/04/25 06:34:08;;;;;;;;;;;4.20;89.90;;;;;;5093487;28;20308;-47
2021/04/25 06:36:39;;;;;;;;;;;4.30;89.60;;;;;;5095659;28;19920;-47
2021/04/25 06:39:05;;;;;;;;;;;4.40;90.00;;;;;;5092999;28;20395;-48
2021/04/25 06:41:32;;;;;;;;;;;4.50;89.10;;;;;;5099852;28;19907;-48
2021/04/25 06:43:58;;;;;;;;;;;4.60;87.80;;;;;;5098195;28;19916;-50
2021/04/25 06:46:24;;;;;;;;;;;4.60;87.00;;;;;;5096628;27;19923;-47
2021/04/25 06:48:50;;;;;;;;;;;4.70;85.90;;;;;;5095993;28;20333;-46
2021/04/25 06:51:16;;;;;;;;;;;4.70;84.90;;;;;;5097968;28;19944;-47
2021/04/25 06:53:42;;;;;;;;;;;4.90;86.00;;;;;;5097753;28;19958;-48
2021/04/25 06:56:08;;;;;;;;;;;4.90;84.20;;;;;;5099082;28;20360;-47
2021/04/25 06:58:34;;;;;;;;;;;5.00;81.60;;;;;;5098797;28;19912;-48
2021/04/25 07:01:00;;;;;;;;;;;5.00;82.00;;;;;;5095737;28;20322;-48
2021/04/25 07:03:26;;;;;;;;;;;5.30;82.70;;;;;;5099866;28;20314;-47
2021/04/25 07:05:52;;;;;;;;;;;5.40;82.00;;;;;;5099225;28;20249;-50
2021/04/25 07:08:18;;;;;;;;;;;5.40;81.90;;;;;;5098316;28;19912;-50
2021/04/25 07:10:44;;;;;;;;;;;5.40;80.70;;;;;;5099278;28;19916;-49
2021/04/25 07:13:10;;;;;;;;;;;5.50;82.00;;;;;;5101350;28;20331;-48
2021/04/25 07:15:36;;;;;;;;;;;5.60;79.00;;;;;;5098446;28;20364;-48
2021/04/25 07:18:02;;;;;;;;;;;5.60;78.60;;;;;;5098708;28;19955;-47
2021/04/25 07:20:28;;;;;;;;;;;5.90;77.70;;;;;;5098462;28;19904;-49
2021/04/25 07:22:53;;;;;;;;;;;6.00;77.30;;;;;;5101559;28;20006;-48
2021/04/25 07:25:19;;;;;;;;;;;6.30;76.60;;;;;;5104089;28;20188;-50
2021/04/25 07:27:45;;;;;;;;;;;6.20;73.80;;;;;;5094345;28;19939;-48
2021/04/25 07:30:12;;;;;;;;;;;6.40;73.50;;;;;;5095246;28;20370;-48
2021/04/25 07:32:38;;;;;;;;;;;6.40;72.90;;;;;;5093451;28;19912;-47
2021/04/25 07:35:04;;;;;;;;;;;6.40;70.40;;;;;;5097324;28;19916;-49
2021/04/25 07:37:30;;;;;;;;;;;6.20;69.00;;;;;;5114558;28;20276;-48
2021/04/25 07:39:56;;;;;;;;;;;6.10;68.00;;;;;;5114814;28;19910;-48
2021/04/25 07:42:22;;;;;;;;;;;6.00;67.70;;;;;;5114585;28;19914;-48
2021/04/25 07:44:48;;;;;;;;;;;6.00;67.70;;;;;;5115382;28;19907;-47
2021/04/25 07:47:14;;;;;;;;;;;6.10;69.20;;;;;;5096033;28;19919;-48
2021/04/25 07:49:40;;;;;;;;;;;6.40;70.20;;;;;;5094355;28;20269;-48
2021/04/25 07:52:06;;;;;;;;;;;6.70;68.80;;;;;;5093536;28;19908;-48
2021/04/25 07:54:32;;;;;;;;;;;7.00;66.10;;;;;;5088203;28;19920;-48
2021/04/25 07:56:58;;;;;;;;;;;7.20;65.50;;;;;;5089934;28;19912;-47
2021/04/25 07:59:24;;;;;;;;;;;7.00;64.50;;;;;;5090690;28;19912;-48
2021/04/25 08:01:50;;;;;;;;;;;7.20;63.60;;;;;;5096135;28;19995;-48
2021/04/25 08:04:16;;;;;;;;;;;7.60;62.00;;;;;;5097759;28;19908;-47
2021/04/25 08:06:42;;;;;;;;;;;7.60;61.00;;;;;;5091005;28;19983;-47
2021/04/25 08:09:08;;;;;;;;;;;7.70;62.80;;;;;;5094356;28;19916;-48
2021/04/25 08:11:34;;;;;;;;;;;7.60;61.20;;;;;;5093052;28;19915;-47
2021/04/25 08:14:00;;;;;;;;;;;7.10;58.20;;;;;;5093730;28;19916;-48
2021/04/25 08:16:27;;;;;;;;;;;6.60;59.30;;;;;;5093857;28;19912;-47
2021/04/25 08:18:53;;;;;;;;;;;6.80;59.90;;;;;;5099368;28;19907;-48
2021/04/25 08:21:19;;;;;;;;;;;7.00;59.10;;;;;;5102307;28;20059;-48
2021/04/25 08:23:44;;;;;;;;;;;6.80;60.40;;;;;;5094390;28;20280;-48
2021/04/25 08:26:10;;;;;;;;;;;7.40;61.10;;;;;;5093460;28;19916;-47
2021/04/25 08:28:36;;;;;;;;;;;8.30;60.50;;;;;;5093263;28;19919;-48
2021/04/25 08:31:02;;;;;;;;;;;8.60;57.80;;;;;;5093154;28;20003;-48
2021/04/25 08:33:28;;;;;;;;;;;8.50;56.40;;;;;;5092762;28;19945;-49
2021/04/25 08:35:54;;;;;;;;;;;8.60;55.00;;;;;;5092107;28;20288;-48
2021/04/25 08:38:20;;;;;;;;;;;8.30;56.10;;;;;;5093335;28;19915;-48
2021/04/25 08:40:46;;;;;;;;;;;8.60;58.30;;;;;;5094228;28;19908;-48
2021/04/25 08:43:13;;;;;;;;;;;8.60;56.10;;;;;;5092442;28;20292;-49
2021/04/25 08:45:39;;;;;;;;;;;8.70;54.80;;;;;;5092347;28;19915;-48
2021/04/25 08:48:05;;;;;;;;;;;9.00;55.40;;;;;;5093006;28;19931;-48
2021/04/25 08:50:33;;;;;;;;;;;9.20;54.20;;;;;;5092796;28;19978;-48
2021/04/25 08:52:59;;;;;;;;;;;9.00;53.70;;;;;;5092838;28;19908;-47
2021/04/25 08:55:25;;;;;;;;;;;8.90;53.90;;;;;;5092253;28;20269;-47
2021/04/25 08:57:51;;;;;;;;;;;8.70;53.10;;;;;;5093522;28;20011;-49
2021/04/25 09:00:17;;;;;;;;;;;8.30;53.00;;;;;;5092084;28;19908;-48
2021/04/25 09:02:44;;;;;;;;;;;8.40;53.00;;;;;;5093153;28;19908;-60
2021/04/25 09:05:10;;;;;;;;;;;8.30;55.00;;;;;;5093236;28;19912;-50
2021/04/25 09:07:36;;;;;;;;;;;7.90;54.40;;;;;;5093861;28;19919;-51
2021/04/25 09:10:07;;;;;;;;;;;7.90;55.30;;;;;;5092634;28;19919;-52
2021/04/25 09:12:39;;;;;;;;;;;8.30;55.30;;;;;;5092348;28;19908;-51
2021/04/25 09:15:23;;;;;;;;;;;8.50;53.70;;;;;;5101811;28;19908;-52
2021/04/25 09:17:49;;;;;;;;;;;9.00;54.30;;;;;;5086211;28;19916;-53
2021/04/25 09:20:16;;;;;;;;;;;9.00;53.00;;;;;;5090879;28;19915;-54
2021/04/25 09:22:42;;;;;;;;;;;9.40;52.40;;;;;;5087758;28;20780;-63
2021/04/25 09:25:09;;;;;;;872.50;473.58;;;10.90;52.90;;;;;;5089669;28;20393;-58
2021/04/25 09:27:35;;;;;;;876.85;520.72;;;11.70;49.60;;;;;;5090621;28;20404;-54
2021/04/25 09:30:04;;;;;;;802.90;339.30;;;11.40;50.50;;;;;;5092577;28;20216;-52
2021/04/25 09:32:31;;;;;;;807.83;319.67;;;10.30;49.20;;;;;;5092982;28;20545;-53
2021/04/25 09:35:16;;;;;;;799.57;285.47;;;9.30;49.40;;;;;;5074699;28;20228;-54
2021/04/25 09:37:45;;;;;;;811.10;296.00;;;9.60;50.70;;;;;;5084954;28;20189;-49
2021/04/25 09:40:16;;;;;;;898.42;503.45;;;8.90;49.00;;;;;;5088745;28;20726;-49
2021/04/25 09:43:06;;;;;;;819.90;278.30;;;8.70;49.60;;;;;;5090508;28;20561;-51
2021/04/25 09:45:49;;;;;;;816.23;262.83;;;7.80;50.00;;;;;;5085374;28;20173;-49
2021/04/25 09:48:28;;;;;;;827.63;271.60;;;8.60;50.90;;;;;;5098315;28;20168;-51
2021/04/25 09:51:13;;;;;;;863.97;348.13;;;9.80;49.20;;;;;;5091600;28;20216;-52
2021/04/25 09:53:43;;;;;;;874.43;424.50;;;11.00;48.40;;;;;;5088481;28;20266;-51
2021/04/25 09:56:10;;;;;;;891.50;487.30;;;11.60;47.10;;;;;;5087328;28;20902;-51
2021/04/25 09:58:58;;;;;;;899.28;525.55;;;11.10;45.80;;;;;;5090503;28;20188;-52
2021/04/25 10:01:27;;;;;;;907.72;554.58;;;11.50;45.80;;;;;;5090842;28;20196;-51
2021/04/25 10:03:54;;;;;;;917.70;558.83;;;11.10;45.10;;;;;;5089608;28;20185;-51
2021/04/25 10:06:22;;;;;;;928.65;595.00;;;11.00;45.90;;;;;;5090894;28;20184;-50
2021/04/25 10:08:49;;;;;;;920.88;593.20;;;12.10;44.00;;;;;;5089544;28;20181;-50
2021/04/25 10:11:16;;;;;;;920.05;584.85;;;11.40;42.60;;;;;;5090901;28;20209;-56
2021/04/25 10:13:46;;;;;;;937.75;645.53;;;11.90;44.30;;;;;;5091621;28;20180;-52
2021/04/25 10:16:16;;;;;;;963.80;749.72;;;12.90;43.30;;;;;;5090617;28;20623;-57
2021/04/25 10:18:43;;;;;;;975.78;779.00;;;15.00;42.00;;;;;;5090785;28;20646;-55
2021/04/25 10:21:09;;;;;;;962.58;756.88;;;12.60;40.10;;;;;;5090976;28;20185;-53
2021/04/25 10:23:35;;;;;;;958.95;751.58;;;12.60;41.40;;;;;;5089478;28;20189;-51
2021/04/25 10:26:07;;;;;;;947.03;737.40;;;13.40;40.20;;;;;;5090463;28;20216;-54
2021/04/25 10:28:46;;;;;;;954.72;744.15;;;12.40;38.40;;;;;;5089463;28;20185;-51
2021/04/25 10:31:14;;;;;;;970.50;777.70;;;12.40;37.70;;;;;;5075675;28;20209;-53
2021/04/25 10:34:02;;;;;;;993.60;837.22;;;13.40;38.70;;;;;;5093685;28;20217;-56
2021/04/25 10:36:54;;;;;;;1023.15;903.13;;;16.00;39.30;;;;;;5093259;28;20177;-56
2021/04/25 10:39:33;;;;;;;1041.88;927.47;;;17.70;35.70;;;;;;5093586;28;20678;-56
2021/04/25 10:42:25;;;;;;;1052.50;937.38;;;15.90;31.80;;;;;;5093892;28;20177;-54
2021/04/25 10:45:02;;;;;;;1050.70;935.95;;;15.90;34.90;;;;;;5090172;28;20189;-54
2021/04/25 10:47:32;;;;;;;1051.50;936.50;;;16.50;35.90;;;;;;5084721;28;20540;-56
2021/04/25 10:50:00;;;;;;;1061.30;945.78;;;14.80;32.10;;;;;;5094805;28;20212;-54
2021/04/25 10:52:31;;;;;;;1024.15;911.42;;;15.20;33.10;;;;;;5093482;28;20177;-54
2021/04/25 10:55:12;;;;;;;1028.85;895.90;;;13.80;34.40;;;;;;5095111;28;20161;-52
2021/04/25 11:00:33;;;;;;;1000.45;804.63;;;13.80;36.30;;;;;;5094501;28;20180;-55
2021/04/25 11:03:00;;;;;;;848.85;773.05;;;13.50;35.40;;;;;;5093975;28;20173;-53
2021/04/25 11:05:46;;;;;;;846.78;768.45;;;13.00;36.40;;;;;;5094227;28;20524;-53
2021/04/25 11:08:18;;;;;;;877.42;786.08;;;14.10;35.80;;;;;;5074995;28;20625;-55
2021/04/25 11:10:47;;;;;;;765.42;701.10;;;15.50;36.50;;;;;;5087724;28;20563;-54
2021/04/25 11:13:45;;;;;;;922.13;843.45;;;15.20;34.50;;;;;;5095075;28;20169;-53
2021/04/25 11:16:18;;;;;;;865.88;783.92;;;13.60;34.20;;;;;;5071599;28;20574;-55
2021/04/25 11:19:06;;;;;;;837.30;763.78;;;13.70;35.30;;;;;;5092560;28;20184;-56
2021/04/25 11:21:39;;;;;;;811.22;743.90;;;14.20;35.50;;;;;;5092419;28;20192;-55
2021/04/25 11:24:08;;;;;;;385.77;355.38;;;16.00;35.30;;;;;;5091430;28;20179;-54
2021/04/25 11:29:29;;;;;;;325.13;300.20;;;13.70;35.60;;;;;;5091528;28;20543;-56
2021/04/25 11:31:57;;;;;;;478.00;439.98;;;14.30;34.60;;;;;;5092798;28;20548;-50
2021/04/25 11:34:26;;;;;;;607.60;554.88;;;12.80;35.80;;;;;;5093422;28;20216;-50
2021/04/25 11:37:02;;;;;;;509.50;466.10;;;11.90;36.50;;;;;;5093768;28;20188;-52
2021/04/25 11:39:48;;;;;;;687.50;603.47;;;13.20;36.10;;;;;;5092847;28;20153;-54
2021/04/25 11:42:32;;;;;;;300.27;278.83;;;12.70;36.10;;;;;;5088298;28;20164;-54
2021/04/25 11:44:59;;;;;;;412.60;379.05;;;12.10;38.30;;;;;;5093801;28;20173;-52
2021/04/25 11:47:29;;;;;;;427.85;387.58;;;10.80;38.90;;;;;;5091715;28;20169;-53
2021/04/25 11:49:55;;;;;;;399.33;363.70;;;10.70;39.00;;;;;;5091427;28;20633;-53
2021/04/25 11:52:22;;;;;;;327.63;207.13;;;10.60;40.10;;;;;;5091845;28;20189;-51
2021/04/25 11:54:50;;;;;;;276.33;187.23;;;10.20;40.10;;;;;;5091596;28;20181;-52
2021/04/25 11:57:20;;;;;;;372.13;225.85;;;10.70;40.10;;;;;;5091721;28;20653;-52
2021/04/25 11:59:53;;;;;;;295.15;267.55;;;10.50;39.50;;;;;;5091204;28;20688;-54
2021/04/25 12:02:19;;;;;;;423.25;383.05;;;11.50;38.90;;;;;;5085831;28;20184;-51
2021/04/25 12:04:50;;;;;;;413.60;376.38;;;12.10;38.70;;;;;;5093312;28;20200;-51
2021/04/25 12:07:32;;;;;;;438.60;397.75;;;12.60;37.90;;;;;;5092509;28;20222;-51
2021/04/25 12:09:58;;;;;;;243.07;224.95;;;11.20;37.80;;;;;;5093194;28;20176;-50
2021/04/25 12:12:24;;;;;;;297.77;272.25;;;10.80;39.90;;;;;;5093552;28;20188;-50
2021/04/25 12:15:04;;;;;;;231.10;206.35;;;10.20;40.90;;;;;;5093073;28;20169;-54
2021/04/25 12:17:31;;;;;;;167.55;119.93;;;10.00;40.20;;;;;;5087431;28;20200;-51
2021/04/25 12:19:59;;;;;;;329.85;116.13;;;10.50;41.10;;;;;;5096182;28;20532;-51
2021/04/25 12:22:25;;;;;;;319.17;126.38;;;10.70;40.10;;;;;;5100236;28;20164;-51
2021/04/25 12:24:56;;;;;;;243.30;140.68;;;10.80;40.00;;;;;;5093836;28;20181;-52
2021/04/25 12:27:22;;;;;;;89.63;62.17;;;9.90;40.50;;;;;;5085856;28;20189;-51
2021/04/25 12:29:49;;;;;;;110.32;53.35;;;9.70;41.50;;;;;;5093947;28;20176;-52
2021/04/25 12:32:21;;;;;;;5.15;4.68;;;9.80;42.20;;;;;;5097047;28;20185;-51
2021/04/25 12:35:03;;;;;;;40.30;36.25;;;11.10;41.30;;;;;;5094649;28;20170;-50
2021/04/25 12:37:41;;;;;;;124.93;75.85;;;11.30;39.40;;;;;;5095885;28;20201;-51
2021/04/25 12:40:26;;;;;;;181.07;92.38;;;10.70;39.50;;;;;;5094937;28;20201;-50
2021/04/25 12:43:12;;;;;;;61.17;55.28;;;10.40;41.50;;;;;;5086588;28;20184;-53
2021/04/25 12:45:40;;;;;;;115.57;76.60;;;10.30;41.30;;;;;;5092086;28;20199;-52
2021/04/25 12:48:46;;;;;;;60.55;53.88;;;10.10;41.40;;;;;;5092953;28;20184;-52
2021/04/25 12:51:40;;;;;;;87.45;78.75;;;10.80;41.80;;;;;;5075065;28;20673;-51
2021/04/25 12:54:13;;;;;;;107.05;84.72;;;11.60;40.40;;;;;;5065866;28;20182;-53
2021/04/25 12:56:39;;;;;;;94.15;79.32;;;10.60;39.40;;;;;;5085656;28;20200;-52
2021/04/25 12:59:11;;;;;;;;;;;10.00;40.40;;;;;;5092553;28;20020;-73
2021/04/25 13:01:41;;;;;;;;;;;9.90;41.00;;;;;;5092182;28;19915;-73
2021/04/25 13:04:25;;;;;;;;;;;10.10;41.50;;;;;;5093378;28;19912;-69
2021/04/25 13:07:10;;;;;;;;;;;10.10;40.50;;;;;;5091431;28;20357;-75
2021/04/25 13:09:36;;;;;;;;;;;10.00;41.30;;;;;;5092603;28;19915;-70
2021/04/25 13:12:15;;;;;;;;;;;9.90;40.70;;;;;;5091404;28;19912;-70
2021/04/25 13:15:03;;;;;;;;;;;9.70;40.20;;;;;;5092552;28;19915;-68
2021/04/25 13:17:30;;;;;;;;;;;9.90;39.80;;;;;;5091673;28;19916;-71
2021/04/25 13:19:56;;;;;;;;;;;10.60;39.90;;;;;;5094344;28;19912;-71
2021/04/25 13:22:23;;;;;;;;;;;10.70;37.50;;;;;;5092539;28;19931;-70
2021/04/25 13:24:49;;;;;;;;;;;10.20;38.20;;;;;;5074015;28;19915;-72
2021/04/25 13:27:17;;;;;;;;;;;10.50;39.80;;;;;;5090891;28;19908;-73
2021/04/25 13:29:43;;;;;;;;;;;10.10;38.40;;;;;;5091382;28;20347;-72
2021/04/25 13:32:09;;;;;;;;;;;9.90;39.90;;;;;;5092249;28;19927;-72
2021/04/25 13:34:35;;;;;;;;;;;9.60;40.60;;;;;;5092118;28;19924;-72
2021/04/25 13:37:01;;;;;;;;;;;9.80;41.20;;;;;;5091248;28;19908;-71
2021/04/25 13:39:27;;;;;;;;;;;9.50;39.60;;;;;;5092286;28;20003;-72
2021/04/25 13:41:53;;;;;;;;;;;9.80;40.30;;;;;;5091943;28;19931;-71
2021/04/25 13:44:21;;;;;;;;;;;10.50;38.90;;;;;;5090755;28;19912;-71
2021/04/25 13:46:47;;;;;;;;;;;11.20;38.30;;;;;;5091396;28;19919;-70
2021/04/25 13:49:13;;;;;;;;;;;10.40;39.30;;;;;;5091790;28;20003;-73
2021/04/25 13:51:39;;;;;;;;;;;9.90;40.00;;;;;;5091589;28;20448;-71
2021/04/25 13:54:08;;;;;;;;;;;9.60;41.70;;;;;;5092066;28;19908;-71
2021/04/25 13:56:34;;;;;;;;;;;9.60;42.60;;;;;;5091587;28;20292;-71
2021/04/25 13:59:00;;;;;;;;;;;9.70;42.20;;;;;;5092075;28;19912;-70
2021/04/25 14:01:26;;;;;;;;;;;10.20;42.10;;;;;;5091574;28;19981;-74
2021/04/25 14:03:51;;;;;;;;;;;10.60;41.30;;;;;;5090525;28;19908;-70